sensor_id;sensor_type;location;lat;lon;timestamp;pressure;altitude;pressure_sealevel;temperature;humidity
32873;BME280;19224;52.462;16.898;2022-12-01T00:01:04;101653.29;;;2.78;100.00
32873;BME280;19224;52.462;16.898;2022-12-01T00:03:35;101654.14;;;2.75;100.00
32873;BME280;19224;52.462;16.898;2022-12-01T00:06:15;101655.02;;;2.74;100.00
32873;BME280;19224;52.462;16.898;2022-12-01T00:08:49;101653.31;;;2.79;100.00
32873;BME280;19224;52.462;16.898;2022-12-01T00:11:38;101650.20;;;2.78;100.00
32873;BME280;19224;52.462;16.898;2022-12-01T00:14:08;101645.75;;;2.79;100.00
32873;BME280;19224;52.462;16.898;2022-12-01T00:16:39;101646.08;;;2.66;100.00
32873;BME280;19224;52.462;16.898;2022-12-01T00:19:11;101646.56;;;2.67;100.00
32873;BME280;19224;52.462;16.898;2022-12-01T00:21:41;101647.00;;;2.70;100.00
32873;BME280;19224;52.462;16.898;2022-12-01T00:24:12;101641.25;;;2.67;100.00
32873;BME280;19224;52.462;16.898;2022-12-01T00:26:42;101649.65;;;2.67;100.00
32873;BME280;19224;52.462;16.898;2022-12-01T00:29:13;101644.34;;;2.70;100.00
32873;BME280;19224;52.462;16.898;2022-12-01T00:31:43;101641.22;;;2.66;100.00
32873;BME280;19224;52.462;16.898;2022-12-01T00:34:24;101648.30;;;2.65;100.00
32873;BME280;19224;52.462;16.898;2022-12-01T00:36:56;101638.10;;;2.66;100.00
32873;BME280;19224;52.462;16.898;2022-12-01T00:39:26;101638.03;;;2.56;100.00
32873;BME280;19224;52.462;16.898;2022-12-01T00:41:56;101638.09;;;2.62;100.00
32873;BME280;19224;52.462;16.898;2022-12-01T00:44:27;101642.55;;;2.66;100.00
32873;BME280;19224;52.462;16.898;2022-12-01T00:46:57;101639.91;;;2.67;100.00
32873;BME280;19224;52.462;16.898;2022-12-01T00:49:28;101646.13;;;2.69;100.00
32873;BME280;19224;52.462;16.898;2022-12-01T00:51:58;101641.71;;;2.71;100.00
32873;BME280;19224;52.462;16.898;2022-12-01T00:54:29;101638.53;;;2.64;100.00
32873;BME280;19224;52.462;16.898;2022-12-01T00:57:02;101641.19;;;2.64;100.00
32873;BME280;19224;52.462;16.898;2022-12-01T00:59:33;101638.11;;;2.65;100.00
32873;BME280;19224;52.462;16.898;2022-12-01T01:02:07;101633.66;;;2.65;100.00
32873;BME280;19224;52.462;16.898;2022-12-01T01:04:38;101634.98;;;2.62;100.00
32873;BME280;19224;52.462;16.898;2022-12-01T01:07:09;101631.87;;;2.61;100.00
32873;BME280;19224;52.462;16.898;2022-12-01T01:09:39;101634.98;;;2.62;100.00
32873;BME280;19224;52.462;16.898;2022-12-01T01:12:09;101631.87;;;2.61;100.00
32873;BME280;19224;52.462;16.898;2022-12-01T01:14:40;101622.12;;;2.63;100.00
32873;BME280;19224;52.462;16.898;2022-12-01T01:17:10;101634.50;;;2.60;100.00
32873;BME280;19224;52.462;16.898;2022-12-01T01:19:40;101630.56;;;2.64;100.00
32873;BME280;19224;52.462;16.898;2022-12-01T01:22:11;101633.20;;;2.61;100.00
32873;BME280;19224;52.462;16.898;2022-12-01T01:24:41;101631.84;;;2.60;100.00
32873;BME280;19224;52.462;16.898;2022-12-01T01:27:12;101628.31;;;2.59;100.00
32873;BME280;19224;52.462;16.898;2022-12-01T01:29:42;101620.34;;;2.59;100.00
32873;BME280;19224;52.462;16.898;2022-12-01T01:32:12;101627.91;;;2.63;100.00
32873;BME280;19224;52.462;16.898;2022-12-01T01:34:42;101620.83;;;2.65;100.00
32873;BME280;19224;52.462;16.898;2022-12-01T01:37:14;101623.00;;;2.59;100.00
32873;BME280;19224;52.462;16.898;2022-12-01T01:39:44;101627.88;;;2.61;100.00
32873;BME280;19224;52.462;16.898;2022-12-01T01:42:17;101629.20;;;2.58;100.00
32873;BME280;19224;52.462;16.898;2022-12-01T01:44:55;101620.77;;;2.57;100.00
32873;BME280;19224;52.462;16.898;2022-12-01T01:47:35;101626.09;;;2.57;100.00
32873;BME280;19224;52.462;16.898;2022-12-01T01:50:27;101626.11;;;2.60;100.00
32873;BME280;19224;52.462;16.898;2022-12-01T01:53:07;101625.70;;;2.64;100.00
32873;BME280;19224;52.462;16.898;2022-12-01T01:55:38;101627.47;;;2.66;100.00
32873;BME280;19224;52.462;16.898;2022-12-01T01:58:10;101630.58;;;2.66;100.00
32873;BME280;19224;52.462;16.898;2022-12-01T02:00:42;101626.63;;;2.70;100.00
32873;BME280;19224;52.462;16.898;2022-12-01T02:03:16;101628.40;;;2.68;100.00
32873;BME280;19224;52.462;16.898;2022-12-01T02:05:48;101627.47;;;2.65;100.00
32873;BME280;19224;52.462;16.898;2022-12-01T02:08:18;101623.48;;;2.65;100.00
32873;BME280;19224;52.462;16.898;2022-12-01T02:14:07;101627.06;;;2.68;100.00
32873;BME280;19224;52.462;16.898;2022-12-01T02:16:53;101628.36;;;2.64;100.00
32873;BME280;19224;52.462;16.898;2022-12-01T02:32:03;101634.48;;;2.57;100.00
32873;BME280;19224;52.462;16.898;2022-12-01T02:37:48;101635.39;;;2.57;100.00
32873;BME280;19224;52.462;16.898;2022-12-01T02:40:25;101633.56;;;2.53;100.00
32873;BME280;19224;52.462;16.898;2022-12-01T02:43:30;101632.69;;;2.54;100.00
32873;BME280;19224;52.462;16.898;2022-12-01T02:46:09;101634.86;;;2.47;100.00
32873;BME280;19224;52.462;16.898;2022-12-01T02:48:45;101626.02;;;2.51;100.00
32873;BME280;19224;52.462;16.898;2022-12-01T02:51:30;101629.53;;;2.49;100.00
32873;BME280;19224;52.462;16.898;2022-12-01T02:54:03;101631.36;;;2.53;100.00
32873;BME280;19224;52.462;16.898;2022-12-01T02:56:34;101634.95;;;2.56;100.00
32873;BME280;19224;52.462;16.898;2022-12-01T02:59:14;101632.69;;;2.54;100.00
32873;BME280;19224;52.462;16.898;2022-12-01T03:05:05;101635.34;;;2.54;100.00
32873;BME280;19224;52.462;16.898;2022-12-01T03:10:56;101632.23;;;2.53;100.00
32873;BME280;19224;52.462;16.898;2022-12-01T03:16:27;101617.50;;;2.41;100.00
32873;BME280;19224;52.462;16.898;2022-12-01T03:19:21;101617.95;;;2.42;100.00
32873;BME280;19224;52.462;16.898;2022-12-01T03:21:58;101617.50;;;2.41;100.00
32873;BME280;19224;52.462;16.898;2022-12-01T03:24:29;101614.91;;;2.44;100.00
32873;BME280;19224;52.462;16.898;2022-12-01T03:27:02;101617.95;;;2.42;100.00
32873;BME280;19224;52.462;16.898;2022-12-01T03:29:39;101613.98;;;2.41;100.00
32873;BME280;19224;52.462;16.898;2022-12-01T03:32:24;101613.48;;;2.35;100.00
32873;BME280;19224;52.462;16.898;2022-12-01T03:35:12;101611.75;;;2.39;100.00
32873;BME280;19224;52.462;16.898;2022-12-01T03:37:59;101612.17;;;2.38;100.00
32873;BME280;19224;52.462;16.898;2022-12-01T03:40:30;101618.37;;;2.37;100.00
32873;BME280;19224;52.462;16.898;2022-12-01T03:43:09;101612.58;;;2.35;100.00
32873;BME280;19224;52.462;16.898;2022-12-01T03:46:09;101617.94;;;2.39;100.00
32873;BME280;19224;52.462;16.898;2022-12-01T03:48:40;101616.61;;;2.39;100.00
32873;BME280;19224;52.462;16.898;2022-12-01T03:51:30;101615.75;;;2.42;100.00
32873;BME280;19224;52.462;16.898;2022-12-01T03:54:07;101608.66;;;2.41;100.00
32873;BME280;19224;52.462;16.898;2022-12-01T03:56:45;101610.84;;;2.38;100.00
32873;BME280;19224;52.462;16.898;2022-12-01T03:59:16;101598.00;;;2.39;100.00
32873;BME280;19224;52.462;16.898;2022-12-01T04:01:48;101602.89;;;2.40;100.00
32873;BME280;19224;52.462;16.898;2022-12-01T04:04:19;101594.46;;;2.40;100.00
32873;BME280;19224;52.462;16.898;2022-12-01T04:06:50;101601.09;;;2.37;100.00
32873;BME280;19224;52.462;16.898;2022-12-01T04:09:20;101599.34;;;2.42;100.00
32873;BME280;19224;52.462;16.898;2022-12-01T04:11:50;101593.63;;;2.46;100.00
32873;BME280;19224;52.462;16.898;2022-12-01T04:14:39;101593.19;;;2.48;100.00
32873;BME280;19224;52.462;16.898;2022-12-01T04:17:09;101595.84;;;2.45;100.00
32873;BME280;19224;52.462;16.898;2022-12-01T04:19:39;101603.84;;;2.46;100.00
32873;BME280;19224;52.462;16.898;2022-12-01T04:22:09;101602.45;;;2.43;100.00
32873;BME280;19224;52.462;16.898;2022-12-01T04:24:40;101602.05;;;2.45;100.00
32873;BME280;19224;52.462;16.898;2022-12-01T04:27:11;101600.75;;;2.48;100.00
32873;BME280;19224;52.462;16.898;2022-12-01T04:29:42;101605.20;;;2.51;100.00
32873;BME280;19224;52.462;16.898;2022-12-01T04:32:12;101599.45;;;2.53;100.00
32873;BME280;19224;52.462;16.898;2022-12-01T04:34:42;101595.89;;;2.52;100.00
32873;BME280;19224;52.462;16.898;2022-12-01T04:37:13;101605.20;;;2.52;100.00
32873;BME280;19224;52.462;16.898;2022-12-01T04:39:43;101609.69;;;2.56;100.00
32873;BME280;19224;52.462;16.898;2022-12-01T04:42:14;101604.81;;;2.57;100.00
32873;BME280;19224;52.462;16.898;2022-12-01T04:44:44;101607.90;;;2.57;100.00
32873;BME280;19224;52.462;16.898;2022-12-01T04:47:14;101606.98;;;2.53;100.00
32873;BME280;19224;52.462;16.898;2022-12-01T04:49:44;101607.48;;;2.57;100.00
32873;BME280;19224;52.462;16.898;2022-12-01T04:52:15;101608.80;;;2.57;100.00
32873;BME280;19224;52.462;16.898;2022-12-01T04:54:45;101610.58;;;2.58;100.00
32873;BME280;19224;52.462;16.898;2022-12-01T04:57:16;101613.22;;;2.57;100.00
32873;BME280;19224;52.462;16.898;2022-12-01T04:59:46;101609.69;;;2.56;100.00
32873;BME280;19224;52.462;16.898;2022-12-01T05:02:16;101610.52;;;2.52;100.00
32873;BME280;19224;52.462;16.898;2022-12-01T05:04:46;101615.90;;;2.58;100.00
32873;BME280;19224;52.462;16.898;2022-12-01T05:07:17;101612.83;;;2.62;100.00
32873;BME280;19224;52.462;16.898;2022-12-01T05:09:47;101618.12;;;2.60;100.00
32873;BME280;19224;52.462;16.898;2022-12-01T05:12:17;101625.22;;;2.61;100.00
32873;BME280;19224;52.462;16.898;2022-12-01T05:14:48;101610.20;;;2.68;100.00
32873;BME280;19224;52.462;16.898;2022-12-01T05:17:18;101608.45;;;2.68;100.00
32873;BME280;19224;52.462;16.898;2022-12-01T05:19:48;101614.19;;;2.68;100.00
32873;BME280;19224;52.462;16.898;2022-12-01T05:22:36;101611.97;;;2.66;100.00
32873;BME280;19224;52.462;16.898;2022-12-01T05:25:07;101618.59;;;2.64;100.00
32873;BME280;19224;52.462;16.898;2022-12-01T05:27:38;101608.00;;;2.67;100.00
32873;BME280;19224;52.462;16.898;2022-12-01T05:30:10;101618.66;;;2.70;100.00
32873;BME280;19224;52.462;16.898;2022-12-01T05:32:40;101613.78;;;2.71;100.00
32873;BME280;19224;52.462;16.898;2022-12-01T05:35:10;101617.33;;;2.70;100.00
32873;BME280;19224;52.462;16.898;2022-12-01T05:37:41;101616.37;;;2.65;100.00
32873;BME280;19224;52.462;16.898;2022-12-01T05:40:12;101611.50;;;2.62;100.00
32873;BME280;19224;52.462;16.898;2022-12-01T05:42:42;101610.63;;;2.63;100.00
32873;BME280;19224;52.462;16.898;2022-12-01T05:45:12;101612.41;;;2.64;100.00
32873;BME280;19224;52.462;16.898;2022-12-01T05:47:43;101609.33;;;2.67;100.00
32873;BME280;19224;52.462;16.898;2022-12-01T05:50:13;101621.30;;;2.67;100.00
32873;BME280;19224;52.462;16.898;2022-12-01T05:52:44;101623.08;;;2.68;100.00
32873;BME280;19224;52.462;16.898;2022-12-01T05:55:14;101621.31;;;2.70;100.00
32873;BME280;19224;52.462;16.898;2022-12-01T05:57:45;101623.13;;;2.77;100.00
32873;BME280;19224;52.462;16.898;2022-12-01T06:00:17;101622.70;;;2.78;100.00
32873;BME280;19224;52.462;16.898;2022-12-01T06:02:47;101623.61;;;2.78;100.00
32873;BME280;19224;52.462;16.898;2022-12-01T06:05:17;101624.96;;;2.84;100.00
32873;BME280;19224;52.462;16.898;2022-12-01T06:07:48;101623.20;;;2.85;100.00
32873;BME280;19224;52.462;16.898;2022-12-01T06:10:18;101620.97;;;2.84;100.00
32873;BME280;19224;52.462;16.898;2022-12-01T06:12:49;101622.30;;;2.84;100.00
32873;BME280;19224;52.462;16.898;2022-12-01T06:15:19;101630.74;;;2.88;100.00
32873;BME280;19224;52.462;16.898;2022-12-01T06:17:49;101631.61;;;2.84;100.00
32873;BME280;19224;52.462;16.898;2022-12-01T06:20:20;101625.41;;;2.85;100.00
32873;BME280;19224;52.462;16.898;2022-12-01T06:22:51;101629.32;;;2.76;100.00
32873;BME280;19224;52.462;16.898;2022-12-01T06:25:22;101635.58;;;2.78;100.00
32873;BME280;19224;52.462;16.898;2022-12-01T06:27:58;101638.25;;;2.81;100.00
32873;BME280;19224;52.462;16.898;2022-12-01T06:30:28;101636.08;;;2.87;100.00
32873;BME280;19224;52.462;16.898;2022-12-01T06:32:59;101636.95;;;2.87;100.00
32873;BME280;19224;52.462;16.898;2022-12-01T06:35:29;101638.76;;;2.93;100.00
32873;BME280;19224;52.462;16.898;2022-12-01T06:37:59;101644.98;;;2.90;100.00
32873;BME280;19224;52.462;16.898;2022-12-01T06:40:30;101646.26;;;2.87;100.00
32873;BME280;19224;52.462;16.898;2022-12-01T06:43:01;101646.70;;;2.88;100.00
32873;BME280;19224;52.462;16.898;2022-12-01T06:45:31;101654.23;;;2.87;100.00
32873;BME280;19224;52.462;16.898;2022-12-01T06:48:01;101658.19;;;2.83;100.00
32873;BME280;19224;52.462;16.898;2022-12-01T06:50:31;101656.85;;;2.78;100.00
32873;BME280;19224;52.462;16.898;2022-12-01T06:53:02;101661.23;;;2.73;100.00
32873;BME280;19224;52.462;16.898;2022-12-01T06:55:32;101659.53;;;2.81;100.00
32873;BME280;19224;52.462;16.898;2022-12-01T06:58:04;101659.55;;;2.84;100.00
32873;BME280;19224;52.462;16.898;2022-12-01T07:00:34;101661.69;;;2.77;100.00
32873;BME280;19224;52.462;16.898;2022-12-01T07:03:04;101661.75;;;2.83;100.00
32873;BME280;19224;52.462;16.898;2022-12-01T07:05:35;101665.34;;;2.87;100.00
32873;BME280;19224;52.462;16.898;2022-12-01T07:08:06;101667.95;;;2.82;100.00
32873;BME280;19224;52.462;16.898;2022-12-01T07:10:36;101664.92;;;2.90;100.00
32873;BME280;19224;52.462;16.898;2022-12-01T07:13:06;101670.71;;;2.94;100.00
32873;BME280;19224;52.462;16.898;2022-12-01T07:15:38;101660.13;;;3.00;100.00
32873;BME280;19224;52.462;16.898;2022-12-01T07:18:08;101663.70;;;3.05;100.00
32873;BME280;19224;52.462;16.898;2022-12-01T07:20:39;101660.61;;;3.07;100.00
32873;BME280;19224;52.462;16.898;2022-12-01T07:23:09;101662.38;;;3.05;100.00
32873;BME280;19224;52.462;16.898;2022-12-01T07:25:39;101657.95;;;3.07;100.00
32873;BME280;19224;52.462;16.898;2022-12-01T07:28:09;101670.39;;;3.10;100.00
32873;BME280;19224;52.462;16.898;2022-12-01T07:30:40;101674.86;;;3.15;100.00
32873;BME280;19224;52.462;16.898;2022-12-01T07:33:10;101670.45;;;3.19;100.00
32873;BME280;19224;52.462;16.898;2022-12-01T07:35:40;101674.50;;;3.26;100.00
32873;BME280;19224;52.462;16.898;2022-12-01T07:38:10;101672.27;;;3.24;100.00
32873;BME280;19224;52.462;16.898;2022-12-01T07:40:40;101675.38;;;3.25;100.00
32873;BME280;19224;52.462;16.898;2022-12-01T07:43:11;101670.52;;;3.29;100.00
32873;BME280;19224;52.462;16.898;2022-12-01T07:45:41;101666.53;;;3.28;100.00
32873;BME280;19224;52.462;16.898;2022-12-01T07:48:11;101665.57;;;3.21;100.00
32873;BME280;19224;52.462;16.898;2022-12-01T07:50:41;101666.92;;;3.23;100.00
32873;BME280;19224;52.462;16.898;2022-12-01T07:53:12;101671.39;;;3.28;100.00
32873;BME280;19224;52.462;16.898;2022-12-01T07:55:48;101678.06;;;3.31;100.00
32873;BME280;19224;52.462;16.898;2022-12-01T07:58:19;101675.84;;;3.29;100.00
32873;BME280;19224;52.462;16.898;2022-12-01T08:00:49;101674.95;;;3.30;100.00
32873;BME280;19224;52.462;16.898;2022-12-01T08:03:19;101675.00;;;3.33;100.00
32873;BME280;19224;52.462;16.898;2022-12-01T08:06:00;101679.39;;;3.31;100.00
32873;BME280;19224;52.462;16.898;2022-12-01T08:08:51;101682.53;;;3.37;100.00
32873;BME280;19224;52.462;16.898;2022-12-01T08:11:27;101679.45;;;3.37;100.00
32873;BME280;19224;52.462;16.898;2022-12-01T08:14:00;101679.89;;;3.35;100.00
32873;BME280;19224;52.462;16.898;2022-12-01T08:16:30;101686.95;;;3.29;100.00
32873;BME280;19224;52.462;16.898;2022-12-01T08:19:01;101686.50;;;3.28;100.00
32873;BME280;19224;52.462;16.898;2022-12-01T08:21:31;101684.69;;;3.22;100.00
32873;BME280;19224;52.462;16.898;2022-12-01T08:24:02;101689.14;;;3.26;100.00
32873;BME280;19224;52.462;16.898;2022-12-01T08:26:33;101683.76;;;3.20;100.00
32873;BME280;19224;52.462;16.898;2022-12-01T08:29:04;101683.76;;;3.20;100.00
32873;BME280;19224;52.462;16.898;2022-12-01T08:31:34;101689.08;;;3.20;100.00
32873;BME280;19224;52.462;16.898;2022-12-01T08:34:07;101678.44;;;3.19;100.00
32873;BME280;19224;52.462;16.898;2022-12-01T08:36:37;101681.09;;;3.20;100.00
32873;BME280;19224;52.462;16.898;2022-12-01T08:39:08;101685.09;;;3.20;100.00
32873;BME280;19224;52.462;16.898;2022-12-01T08:41:38;101680.68;;;3.24;100.00
32873;BME280;19224;52.462;16.898;2022-12-01T08:44:10;101673.63;;;3.29;100.00
32873;BME280;19224;52.462;16.898;2022-12-01T08:46:40;101683.83;;;3.29;100.00
32873;BME280;19224;52.462;16.898;2022-12-01T08:49:10;101679.36;;;3.22;100.00
32873;BME280;19224;52.462;16.898;2022-12-01T08:51:40;101682.03;;;3.25;100.00
32873;BME280;19224;52.462;16.898;2022-12-01T08:54:11;101675.38;;;3.25;100.00
32873;BME280;19224;52.462;16.898;2022-12-01T08:56:44;101678.43;;;3.20;100.00
32873;BME280;19224;52.462;16.898;2022-12-01T08:59:14;101674.92;;;3.26;100.00
32873;BME280;19224;52.462;16.898;2022-12-01T09:01:44;101674.51;;;3.29;100.00
32873;BME280;19224;52.462;16.898;2022-12-01T09:04:26;101674.06;;;3.28;100.00
32873;BME280;19224;52.462;16.898;2022-12-01T09:06:57;101674.03;;;3.27;100.00
32873;BME280;19224;52.462;16.898;2022-12-01T09:09:28;101671.87;;;3.31;100.00
32873;BME280;19224;52.462;16.898;2022-12-01T09:11:59;101674.03;;;3.22;100.00
32873;BME280;19224;52.462;16.898;2022-12-01T09:14:29;101672.28;;;3.27;100.00
32873;BME280;19224;52.462;16.898;2022-12-01T09:16:59;101674.54;;;3.34;100.00
32873;BME280;19224;52.462;16.898;2022-12-01T09:19:30;101671.90;;;3.35;100.00
32873;BME280;19224;52.462;16.898;2022-12-01T09:22:01;101665.25;;;3.38;100.00
32873;BME280;19224;52.462;16.898;2022-12-01T09:24:31;101673.25;;;3.41;100.00
32873;BME280;19224;52.462;16.898;2022-12-01T09:27:02;101668.36;;;3.39;100.00
32873;BME280;19224;52.462;16.898;2022-12-01T09:29:33;101668.80;;;3.37;100.00
32873;BME280;19224;52.462;16.898;2022-12-01T09:32:04;101658.63;;;3.46;100.00
32873;BME280;19224;52.462;16.898;2022-12-01T09:34:34;101657.34;;;3.53;100.00
32873;BME280;19224;52.462;16.898;2022-12-01T09:37:05;101654.23;;;3.55;100.00
32873;BME280;19224;52.462;16.898;2022-12-01T09:39:35;101656.94;;;3.58;100.00
32873;BME280;19224;52.462;16.898;2022-12-01T09:42:12;101654.73;;;3.62;100.00
32873;BME280;19224;52.462;16.898;2022-12-01T09:44:52;101655.16;;;3.60;100.00
32873;BME280;19224;52.462;16.898;2022-12-01T09:47:34;101656.92;;;3.60;100.00
32873;BME280;19224;52.462;16.898;2022-12-01T09:50:13;101652.11;;;3.68;100.00
32873;BME280;19224;52.462;16.898;2022-12-01T09:52:59;101639.68;;;3.73;100.00
32873;BME280;19224;52.462;16.898;2022-12-01T09:55:31;101651.20;;;3.71;100.00
32873;BME280;19224;52.462;16.898;2022-12-01T09:58:03;101646.79;;;3.77;100.00
32873;BME280;19224;52.462;16.898;2022-12-01T10:00:38;101640.59;;;3.83;100.00
32873;BME280;19224;52.462;16.898;2022-12-01T10:06:18;101637.06;;;3.85;100.00
32873;BME280;19224;52.462;16.898;2022-12-01T10:11:39;101634.86;;;3.91;100.00
32873;BME280;19224;52.462;16.898;2022-12-01T10:14:17;101629.95;;;3.87;100.00
32873;BME280;19224;52.462;16.898;2022-12-01T10:23:04;101629.10;;;3.94;100.00
32873;BME280;19224;52.462;16.898;2022-12-01T10:25:46;101625.11;;;3.97;100.00
32873;BME280;19224;52.462;16.898;2022-12-01T10:31:41;101624.66;;;3.93;100.00
32873;BME280;19224;52.462;16.898;2022-12-01T10:34:36;101621.55;;;3.98;100.00
32873;BME280;19224;52.462;16.898;2022-12-01T10:37:21;101624.23;;;3.97;100.00
32873;BME280;19224;52.462;16.898;2022-12-01T10:39:51;101617.59;;;4.01;100.00
32873;BME280;19224;52.462;16.898;2022-12-01T10:42:35;101616.70;;;4.02;100.00
32873;BME280;19224;52.462;16.898;2022-12-01T10:45:15;101613.15;;;4.00;100.00
32873;BME280;19224;52.462;16.898;2022-12-01T10:50:37;101616.27;;;4.09;100.00
32873;BME280;19224;52.462;16.898;2022-12-01T10:56:13;101613.64;;;4.22;100.00
32873;BME280;19224;52.462;16.898;2022-12-01T10:58:50;101609.59;;;4.15;100.00
32873;BME280;19224;52.462;16.898;2022-12-01T11:01:30;101611.39;;;4.20;100.00
32873;BME280;19224;52.462;16.898;2022-12-01T11:06:57;101610.05;;;4.07;100.00
32873;BME280;19224;52.462;16.898;2022-12-01T11:09:29;101602.05;;;4.10;100.00
32873;BME280;19224;52.462;16.898;2022-12-01T11:12:02;101604.70;;;4.08;100.00
32873;BME280;19224;52.462;16.898;2022-12-01T11:14:49;101610.48;;;4.06;100.00
32873;BME280;19224;52.462;16.898;2022-12-01T11:17:42;101602.03;;;4.05;100.00
32873;BME280;19224;52.462;16.898;2022-12-01T11:20:24;101604.70;;;4.05;100.00
32873;BME280;19224;52.462;16.898;2022-12-01T11:26:00;101600.70;;;4.05;100.00
32873;BME280;19224;52.462;16.898;2022-12-01T11:28:33;101602.48;;;4.03;100.00
32873;BME280;19224;52.462;16.898;2022-12-01T11:31:08;101596.26;;;4.07;100.00
32873;BME280;19224;52.462;16.898;2022-12-01T11:33:53;101598.92;;;4.10;100.00
32873;BME280;19224;52.462;16.898;2022-12-01T11:36:41;101598.94;;;4.12;100.00
32873;BME280;19224;52.462;16.898;2022-12-01T11:39:03;101596.27;;;4.04;100.00
32873;BME280;19224;52.462;16.898;2022-12-01T11:41:39;101602.03;;;4.05;100.00
32873;BME280;19224;52.462;16.898;2022-12-01T11:44:20;101604.70;;;4.02;100.00
32873;BME280;19224;52.462;16.898;2022-12-01T11:46:52;101601.15;;;4.06;100.00
32873;BME280;19224;52.462;16.898;2022-12-01T11:49:25;101598.93;;;4.04;100.00
32873;BME280;19224;52.462;16.898;2022-12-01T11:51:56;101602.89;;;3.98;100.00
32873;BME280;19224;52.462;16.898;2022-12-01T11:54:26;101604.67;;;3.99;100.00
32873;BME280;19224;52.462;16.898;2022-12-01T11:56:56;101599.79;;;3.91;100.00
32873;BME280;19224;52.462;16.898;2022-12-01T11:59:29;101600.64;;;3.84;100.00
32873;BME280;19224;52.462;16.898;2022-12-01T12:02:37;101594.89;;;3.85;100.00
32873;BME280;19224;52.462;16.898;2022-12-01T12:11:31;101593.54;;;3.86;100.00
32873;BME280;19224;52.462;16.898;2022-12-01T12:26:27;101592.69;;;3.93;100.00
32873;BME280;19224;52.462;16.898;2022-12-01T12:29:21;101581.12;;;3.97;100.00
32873;BME280;19224;52.462;16.898;2022-12-01T12:38:04;101583.35;;;3.99;100.00
32873;BME280;19224;52.462;16.898;2022-12-01T12:41:03;101583.83;;;4.00;100.00
32873;BME280;19224;52.462;16.898;2022-12-01T12:47:19;101584.23;;;3.98;100.00
32873;BME280;19224;52.462;16.898;2022-12-01T12:52:53;101588.24;;;3.92;100.00
32873;BME280;19224;52.462;16.898;2022-12-01T12:55:38;101589.55;;;3.86;100.00
32873;BME280;19224;52.462;16.898;2022-12-01T12:58:28;101585.12;;;3.87;100.00
32873;BME280;19224;52.462;16.898;2022-12-01T13:01:23;101577.13;;;3.94;100.00
32873;BME280;19224;52.462;16.898;2022-12-01T13:09:49;101584.25;;;4.00;100.00
32873;BME280;19224;52.462;16.898;2022-12-01T13:15:15;101576.66;;;3.87;100.00
32873;BME280;19224;52.462;16.898;2022-12-01T13:20:48;101587.80;;;3.91;100.00
32873;BME280;19224;52.462;16.898;2022-12-01T13:23:19;101574.03;;;3.90;100.00
32873;BME280;19224;52.462;16.898;2022-12-01T13:25:56;101577.52;;;3.77;100.00
32873;BME280;19224;52.462;16.898;2022-12-01T13:28:34;101570.89;;;3.83;100.00
32873;BME280;19224;52.462;16.898;2022-12-01T13:31:09;101574.89;;;3.80;100.00
32873;BME280;19224;52.462;16.898;2022-12-01T13:36:28;101573.56;;;3.80;100.00
32873;BME280;19224;52.462;16.898;2022-12-01T13:39:06;101574.00;;;3.78;100.00
32873;BME280;19224;52.462;16.898;2022-12-01T13:41:37;101573.98;;;3.77;100.00
32873;BME280;19224;52.462;16.898;2022-12-01T13:44:21;101575.31;;;3.74;100.00
32873;BME280;19224;52.462;16.898;2022-12-01T13:47:00;101576.20;;;3.73;100.00
32873;BME280;19224;52.462;16.898;2022-12-01T13:49:44;101573.52;;;3.74;100.00
32873;BME280;19224;52.462;16.898;2022-12-01T13:52:26;101575.30;;;3.69;100.00
32873;BME280;19224;52.462;16.898;2022-12-01T13:58:16;101571.30;;;3.69;100.00
32873;BME280;19224;52.462;16.898;2022-12-01T14:00:28;101571.75;;;3.70;100.00
32873;BME280;19224;52.462;16.898;2022-12-01T14:06:05;101567.30;;;3.75;100.00
32873;BME280;19224;52.462;16.898;2022-12-01T14:08:51;101570.41;;;3.76;100.00
32873;BME280;19224;52.462;16.898;2022-12-01T14:11:29;101567.34;;;3.81;100.00
32873;BME280;19224;52.462;16.898;2022-12-01T14:13:50;101569.55;;;3.86;100.00
32873;BME280;19224;52.462;16.898;2022-12-01T14:16:20;101573.13;;;3.84;100.00
32873;BME280;19224;52.462;16.898;2022-12-01T14:18:57;101578.88;;;3.83;100.00
32873;BME280;19224;52.462;16.898;2022-12-01T14:21:44;101584.66;;;3.84;100.00
32873;BME280;19224;52.462;16.898;2022-12-01T14:24:37;101572.22;;;3.83;100.00
32873;BME280;19224;52.462;16.898;2022-12-01T14:27:10;101577.55;;;3.83;100.00
32873;BME280;19224;52.462;16.898;2022-12-01T14:29:41;101574.91;;;3.85;100.00
32873;BME280;19224;52.462;16.898;2022-12-01T14:32:20;101577.55;;;3.83;100.00
32873;BME280;19224;52.462;16.898;2022-12-01T14:34:53;101571.77;;;3.78;100.00
32873;BME280;19224;52.462;16.898;2022-12-01T14:37:27;101575.78;;;3.82;100.00
32873;BME280;19224;52.462;16.898;2022-12-01T14:40:06;101574.89;;;3.83;100.00
32873;BME280;19224;52.462;16.898;2022-12-01T14:42:39;101578.02;;;3.86;100.00
32873;BME280;19224;52.462;16.898;2022-12-01T14:45:48;101574.46;;;3.84;100.00
32873;BME280;19224;52.462;16.898;2022-12-01T14:48:23;101579.34;;;3.86;100.00
32873;BME280;19224;52.462;16.898;2022-12-01T14:51:05;101580.22;;;3.83;100.00
32873;BME280;19224;52.462;16.898;2022-12-01T14:53:31;101579.33;;;3.81;100.00
32873;BME280;19224;52.462;16.898;2022-12-01T14:56:18;101581.99;;;3.84;100.00
32873;BME280;19224;52.462;16.898;2022-12-01T14:58:58;101574.46;;;3.84;100.00
32873;BME280;19224;52.462;16.898;2022-12-01T15:01:35;101573.11;;;3.85;100.00
32873;BME280;19224;52.462;16.898;2022-12-01T15:04:07;101570.44;;;3.88;100.00